createdAt,value
2023-01-13T00:00:31.868Z,99448.34
2023-01-13T00:02:59.880Z,99432.59
2023-01-13T00:05:28.463Z,99448.03
2023-01-13T00:07:56.386Z,99456.25
2023-01-13T00:10:24.365Z,99464.38
2023-01-13T00:12:53.614Z,99462.38
2023-01-13T00:15:21.598Z,99461.13
2023-01-13T00:17:50.964Z,99458.16
2023-01-13T00:20:19.156Z,99459.22
2023-01-13T00:22:47.054Z,99464.28
2023-01-13T00:25:15.136Z,99461.88
2023-01-13T00:27:42.925Z,99464.44
2023-01-13T00:30:11.826Z,99473.13
2023-01-13T00:32:39.819Z,99465.88
2023-01-13T00:35:09.999Z,99450.09
2023-01-13T00:37:38.953Z,99478.31
2023-01-13T00:40:07.853Z,99476.94
2023-01-13T00:42:52.991Z,99468.81
2023-01-13T00:45:20.955Z,99477.59
2023-01-13T00:47:48.825Z,99480.69
2023-01-13T00:50:18.547Z,99474.25
2023-01-13T00:52:46.470Z,99461.78
2023-01-13T00:55:14.283Z,99470.56
2023-01-13T00:57:42.238Z,99457.25
2023-01-13T01:00:11.798Z,99463.97
2023-01-13T01:02:39.615Z,99447.19
2023-01-13T01:05:08.469Z,99463.69
2023-01-13T01:07:37.823Z,99458.09
2023-01-13T01:10:06.475Z,99461.94
2023-01-13T01:12:36.004Z,99445.56
2023-01-13T01:15:06.172Z,99452.56
2023-01-13T01:17:34.076Z,99459.25
2023-01-13T01:20:02.017Z,99445.47
2023-01-13T01:22:30.031Z,99463.53
2023-01-13T01:24:59.861Z,99468.34
2023-01-13T01:27:27.805Z,99453.38
2023-01-13T01:29:55.634Z,99468.44
2023-01-13T01:32:23.540Z,99448.97
2023-01-13T01:34:51.913Z,99466.69
2023-01-13T01:37:19.706Z,99474.88
2023-01-13T01:39:47.579Z,99477.25
2023-01-13T01:42:36.246Z,99485.31
2023-01-13T01:45:15.085Z,99480.22
2023-01-13T01:47:44.115Z,99483.94
2023-01-13T01:50:12.944Z,99480.22
2023-01-13T01:52:44.284Z,99484.59
2023-01-13T01:55:17.382Z,99481.31
2023-01-13T01:57:51.443Z,99478.75
2023-01-13T02:00:19.735Z,99484.13
2023-01-13T02:02:50.823Z,99477.88
2023-01-13T02:05:19.770Z,99485.06
2023-01-13T02:07:50.216Z,99485.00
2023-01-13T02:10:19.656Z,99485.94
2023-01-13T02:12:49.430Z,99491.03
2023-01-13T02:15:19.716Z,99482.97
2023-01-13T02:18:03.953Z,99480.00
2023-01-13T02:21:15.406Z,99491.25
2023-01-13T02:24:59.014Z,99488.75
2023-01-13T02:27:52.110Z,99473.28
2023-01-13T02:30:57.684Z,99470.97
2023-01-13T02:33:40.523Z,99475.03
2023-01-13T02:36:16.880Z,99467.38
2023-01-13T02:38:52.017Z,99470.53
2023-01-13T02:41:57.727Z,99470.00
2023-01-13T02:44:29.860Z,99477.97
2023-01-13T02:47:05.099Z,99465.16
2023-01-13T02:49:37.717Z,99470.47
2023-01-13T02:52:11.637Z,99461.34
2023-01-13T02:54:43.426Z,99462.38
2023-01-13T02:57:13.340Z,99473.53
2023-01-13T02:59:42.579Z,99477.03
2023-01-13T03:02:17.427Z,99439.22
2023-01-13T03:04:52.100Z,99483.22
2023-01-13T03:07:47.066Z,99489.47
2023-01-13T03:10:26.588Z,99480.94
2023-01-13T03:13:03.283Z,99474.75
2023-01-13T03:15:41.570Z,99498.25
2023-01-13T03:18:20.697Z,99491.59
2023-01-13T03:20:58.320Z,99501.13
2023-01-13T03:23:32.675Z,99507.56
2023-01-13T03:26:06.025Z,99510.91
2023-01-13T03:28:38.077Z,99488.38
2023-01-13T03:31:10.618Z,99496.34
2023-01-13T03:33:46.286Z,99492.44
2023-01-13T03:36:18.275Z,99487.75
2023-01-13T03:38:51.806Z,99480.34
2023-01-13T03:41:24.539Z,99466.97
2023-01-13T03:44:15.991Z,99484.81
2023-01-13T03:46:50.937Z,99477.81
2023-01-13T03:49:23.346Z,99482.50
2023-01-13T03:51:57.176Z,99477.13
2023-01-13T03:54:29.019Z,99480.47
2023-01-13T03:57:00.420Z,99479.47
2023-01-13T03:59:34.393Z,99490.03
2023-01-13T04:02:06.548Z,99490.75
2023-01-13T04:04:41.986Z,99494.25
2023-01-13T04:07:16.938Z,99481.56
2023-01-13T04:09:51.209Z,99493.47
2023-01-13T04:12:26.079Z,99460.28
2023-01-13T04:14:55.295Z,99479.22
2023-01-13T04:17:24.687Z,99482.66
2023-01-13T04:19:53.804Z,99480.03
2023-01-13T04:22:21.855Z,99470.28
2023-01-13T04:24:49.627Z,99459.97
2023-01-13T04:27:17.385Z,99475.28
2023-01-13T04:29:45.367Z,99464.41
2023-01-13T04:32:13.118Z,99482.19
2023-01-13T04:34:40.886Z,99479.91
2023-01-13T04:37:10.146Z,99480.94
2023-01-13T04:39:38.294Z,99477.41
2023-01-13T04:42:06.129Z,99465.22
2023-01-13T04:44:35.531Z,99478.31
2023-01-13T04:47:03.629Z,99485.28
2023-01-13T04:49:31.681Z,99483.91
2023-01-13T04:51:59.736Z,99480.34
2023-01-13T04:54:28.801Z,99489.16
2023-01-13T04:56:56.541Z,99488.25
2023-01-13T04:59:24.589Z,99484.81
2023-01-13T05:01:52.474Z,99480.47
2023-01-13T05:04:20.319Z,99478.72
2023-01-13T05:06:48.477Z,99469.16
2023-01-13T05:09:16.357Z,99477.41
2023-01-13T05:12:05.053Z,99476.63
2023-01-13T05:14:50.573Z,99478.31
2023-01-13T05:17:21.665Z,99482.59
2023-01-13T05:19:49.368Z,99482.69
2023-01-13T05:22:34.812Z,99484.44
2023-01-13T05:25:20.002Z,99485.91
2023-01-13T05:27:49.479Z,99469.91
2023-01-13T05:30:18.259Z,99442.03
2023-01-13T05:32:46.185Z,99460.13
2023-01-13T05:35:16.085Z,99466.69
2023-01-13T05:37:44.302Z,99454.56
2023-01-13T05:40:31.426Z,99444.34
2023-01-13T05:43:21.186Z,99442.63
2023-01-13T05:45:50.751Z,99442.75
2023-01-13T05:48:20.523Z,99453.84
2023-01-13T05:50:49.254Z,99432.25
2023-01-13T05:53:18.391Z,99458.75
2023-01-13T05:55:46.878Z,99460.50
2023-01-13T05:58:17.340Z,99460.25
2023-01-13T06:00:44.993Z,99458.06
2023-01-13T06:03:13.547Z,99460.25
2023-01-13T06:05:41.444Z,99467.94
2023-01-13T06:08:10.306Z,99466.06
2023-01-13T06:10:38.450Z,99465.03
2023-01-13T06:13:06.437Z,99466.00
2023-01-13T06:15:35.981Z,99475.72
2023-01-13T06:18:04.651Z,99465.25
2023-01-13T06:20:32.770Z,99460.78
2023-01-13T06:23:01.542Z,99445.72
2023-01-13T06:25:40.849Z,99448.91
2023-01-13T06:28:08.731Z,99447.94
2023-01-13T06:30:40.946Z,99435.44
2023-01-13T06:33:13.185Z,99447.72
2023-01-13T06:35:44.850Z,99428.41
2023-01-13T06:38:17.079Z,99439.16
2023-01-13T06:40:45.264Z,99430.06
2023-01-13T06:43:17.976Z,99439.75
2023-01-13T06:45:50.592Z,99447.44
2023-01-13T06:48:20.014Z,99448.19
2023-01-13T06:50:47.892Z,99446.41
2023-01-13T06:53:15.706Z,99444.38
2023-01-13T06:55:43.699Z,99425.38
2023-01-13T06:58:11.573Z,99430.16
2023-01-13T07:00:39.679Z,99429.91
2023-01-13T07:03:14.613Z,99437.09
2023-01-13T07:05:44.129Z,99426.25
2023-01-13T07:08:12.048Z,99416.81
2023-01-13T07:10:40.239Z,99412.47
2023-01-13T07:13:25.358Z,99415.69
2023-01-13T07:15:58.053Z,99390.50
2023-01-13T07:18:28.522Z,99408.72
2023-01-13T07:20:58.005Z,99408.50
2023-01-13T07:23:26.769Z,99408.31
2023-01-13T07:25:56.698Z,99404.84
2023-01-13T07:28:25.122Z,99379.50
2023-01-13T07:30:53.169Z,99395.22
2023-01-13T07:33:21.427Z,99394.25
2023-01-13T07:35:57.823Z,99396.66
2023-01-13T07:38:25.791Z,99395.66
2023-01-13T07:40:53.686Z,99388.69
2023-01-13T07:43:33.225Z,99393.69
2023-01-13T07:46:02.945Z,99393.69
2023-01-13T07:48:31.896Z,99394.38
2023-01-13T07:51:04.345Z,99396.75
2023-01-13T07:53:32.499Z,99397.44
2023-01-13T07:56:01.250Z,99387.19
2023-01-13T07:58:29.947Z,99386.34
2023-01-13T08:00:58.543Z,99386.13
2023-01-13T08:03:28.019Z,99362.44
2023-01-13T08:05:55.804Z,99367.09
2023-01-13T08:08:25.023Z,99356.28
2023-01-13T08:10:52.760Z,99355.38
2023-01-13T08:13:21.565Z,99358.75
2023-01-13T08:15:51.116Z,99357.78
2023-01-13T08:18:22.111Z,99352.50
2023-01-13T08:20:52.337Z,99356.03
2023-01-13T08:23:20.676Z,99349.03
2023-01-13T08:25:50.477Z,99345.47
2023-01-13T08:28:18.739Z,99347.09
2023-01-13T08:30:46.661Z,99341.00
2023-01-13T08:33:14.570Z,99323.28
2023-01-13T08:35:43.115Z,99304.09
2023-01-13T08:38:11.136Z,99332.97
2023-01-13T08:40:40.757Z,99328.78
2023-01-13T08:43:09.883Z,99315.84
2023-01-13T08:45:37.724Z,99322.75
2023-01-13T08:48:06.422Z,99308.31
2023-01-13T08:50:34.172Z,99316.47
2023-01-13T08:53:02.175Z,99293.19
2023-01-13T08:55:30.024Z,99305.59
2023-01-13T08:58:14.280Z,99303.94
2023-01-13T09:00:45.338Z,99292.09
2023-01-13T09:03:13.049Z,99293.19
2023-01-13T09:05:40.769Z,99289.16
2023-01-13T09:08:08.883Z,99279.84
2023-01-13T09:10:37.020Z,99280.34
2023-01-13T09:13:12.850Z,99266.59
2023-01-13T09:15:42.553Z,99268.50
2023-01-13T09:18:11.953Z,99270.09
2023-01-13T09:20:40.480Z,99251.16
2023-01-13T09:23:10.749Z,99251.88
2023-01-13T09:25:39.475Z,99259.13
2023-01-13T09:28:08.796Z,99259.03
2023-01-13T09:30:38.223Z,99230.34
2023-01-13T09:33:23.403Z,99257.13
2023-01-13T09:35:52.653Z,99252.78
2023-01-13T09:38:20.511Z,99256.75
2023-01-13T09:40:50.204Z,99254.56
2023-01-13T09:43:41.437Z,99249.19
2023-01-13T09:46:31.160Z,99243.38
2023-01-13T09:49:00.099Z,99238.00
2023-01-13T09:51:35.336Z,99238.94
2023-01-13T09:54:09.997Z,99240.88
2023-01-13T09:56:38.025Z,99234.06
2023-01-13T09:59:06.150Z,99236.59
2023-01-13T10:01:40.156Z,99228.97
2023-01-13T10:04:12.689Z,99220.16
2023-01-13T10:06:44.620Z,99196.75
2023-01-13T10:09:16.221Z,99206.47
2023-01-13T10:12:04.944Z,99204.38
2023-01-13T10:14:38.863Z,99195.13
2023-01-13T10:17:13.517Z,99188.00
2023-01-13T10:19:46.246Z,99171.38
2023-01-13T10:22:27.085Z,99191.03
2023-01-13T10:25:20.297Z,99174.66
2023-01-13T10:27:50.276Z,99184.41
2023-01-13T10:30:31.351Z,99176.38
2023-01-13T10:33:01.969Z,99172.09
2023-01-13T10:35:47.937Z,99163.38
2023-01-13T10:38:20.568Z,99173.69
2023-01-13T10:40:50.393Z,99176.19
2023-01-13T10:43:18.248Z,99180.59
2023-01-13T10:45:57.036Z,99168.00
2023-01-13T10:48:32.411Z,99164.63
2023-01-13T10:51:00.331Z,99165.56
2023-01-13T10:53:31.055Z,99168.75
2023-01-13T10:56:03.969Z,99165.34
2023-01-13T10:58:31.791Z,99154.75
2023-01-13T11:01:01.901Z,99168.22
2023-01-13T11:03:40.729Z,99155.38
2023-01-13T11:06:09.566Z,99148.09
2023-01-13T11:08:46.329Z,99144.78
2023-01-13T11:11:34.303Z,99164.63
2023-01-13T11:14:23.701Z,99170.66
2023-01-13T11:16:56.719Z,99167.72
2023-01-13T11:19:27.862Z,99157.88
2023-01-13T11:22:02.015Z,99160.59
2023-01-13T11:24:37.319Z,99159.59
2023-01-13T11:27:11.298Z,99145.88
2023-01-13T11:29:44.529Z,99149.34
2023-01-13T11:32:15.005Z,99148.00
2023-01-13T11:34:43.144Z,99143.56
2023-01-13T11:37:18.528Z,99138.78
2023-01-13T11:39:55.568Z,99124.81
2023-01-13T11:42:27.676Z,99133.84
2023-01-13T11:45:04.406Z,99129.19
2023-01-13T11:47:33.627Z,99151.97
2023-01-13T11:50:02.554Z,99143.94
2023-01-13T11:52:48.576Z,99144.34
2023-01-13T11:55:33.428Z,99146.72
2023-01-13T11:58:45.636Z,99145.81
2023-01-13T12:01:25.582Z,99149.13
2023-01-13T12:04:06.930Z,99142.97
2023-01-13T12:06:38.428Z,99149.66
2023-01-13T12:09:25.092Z,99140.81
2023-01-13T12:12:22.910Z,99150.94
2023-01-13T12:15:23.614Z,99156.84
2023-01-13T12:17:58.856Z,99154.06
2023-01-13T12:20:35.788Z,99157.13
2023-01-13T12:23:08.608Z,99150.81
2023-01-13T12:25:41.648Z,99171.72
2023-01-13T12:28:16.232Z,99170.53
2023-01-13T12:30:50.855Z,99169.19
2023-01-13T12:33:29.310Z,99169.44
2023-01-13T12:36:02.641Z,99170.78
2023-01-13T12:38:37.425Z,99144.94
2023-01-13T12:41:16.850Z,99173.75
2023-01-13T12:44:07.391Z,99169.84
2023-01-13T12:46:36.391Z,99163.72
2023-01-13T12:49:08.323Z,99168.72
2023-01-13T12:51:38.306Z,99171.97
2023-01-13T12:54:54.820Z,99182.41
2023-01-13T12:57:25.380Z,99186.00
2023-01-13T13:00:24.660Z,99181.25
2023-01-13T13:03:20.942Z,99182.44
2023-01-13T13:05:58.787Z,99187.13
2023-01-13T13:08:43.277Z,99176.06
2023-01-13T13:12:03.382Z,99187.19
2023-01-13T13:15:07.035Z,99185.84
2023-01-13T13:17:44.406Z,99175.28
2023-01-13T13:20:53.967Z,99180.81
2023-01-13T13:23:30.617Z,99183.84
2023-01-13T13:26:04.927Z,99180.81
2023-01-13T13:28:38.327Z,99177.69
2023-01-13T13:31:37.440Z,99193.19
2023-01-13T13:34:21.595Z,99194.09
2023-01-13T13:37:08.761Z,99199.78
2023-01-13T13:39:51.390Z,99198.09
2023-01-13T13:42:52.242Z,99199.97
2023-01-13T13:45:40.122Z,99205.16
2023-01-13T13:48:25.053Z,99209.94
2023-01-13T13:50:58.125Z,99219.53
2023-01-13T13:53:29.876Z,99225.75
2023-01-13T13:55:59.801Z,99234.59
2023-01-13T13:58:29.829Z,99236.81
2023-01-13T14:01:02.156Z,99224.13
2023-01-13T14:03:33.562Z,99232.84
2023-01-13T14:06:04.365Z,99229.25
2023-01-13T14:08:35.570Z,99239.38
2023-01-13T14:11:03.347Z,99237.56
2023-01-13T14:13:32.788Z,99234.25
2023-01-13T14:16:02.574Z,99237.97
2023-01-13T14:18:33.429Z,99240.69
2023-01-13T14:21:14.998Z,99225.31
2023-01-13T14:23:52.388Z,99240.06
2023-01-13T14:26:25.832Z,99238.66
2023-01-13T14:28:54.383Z,99241.44
2023-01-13T14:31:23.695Z,99245.66
2023-01-13T14:33:53.590Z,99238.47
2023-01-13T14:36:24.712Z,99241.34
2023-01-13T14:39:27.561Z,99246.47
2023-01-13T14:41:55.503Z,99249.94
2023-01-13T14:44:27.409Z,99250.63
2023-01-13T14:46:57.421Z,99241.34
2023-01-13T14:49:30.131Z,99259.00
2023-01-13T14:52:08.249Z,99266.97
2023-01-13T14:54:43.842Z,99262.13
2023-01-13T14:57:17.080Z,99260.47
2023-01-13T14:59:51.649Z,99263.94
2023-01-13T15:02:47.903Z,99269.03
2023-01-13T15:05:31.855Z,99262.97
2023-01-13T15:08:04.990Z,99254.97
2023-01-13T15:10:38.094Z,99264.28
2023-01-13T15:13:08.252Z,99269.75
2023-01-13T15:15:37.505Z,99257.88
2023-01-13T15:18:13.941Z,99236.78
2023-01-13T15:20:43.025Z,99263.38
2023-01-13T15:23:12.673Z,99249.75
2023-01-13T15:25:42.855Z,99271.19
2023-01-13T15:28:17.359Z,99241.00
2023-01-13T15:30:45.604Z,99258.56
2023-01-13T15:33:15.396Z,99278.78
2023-01-13T15:35:45.827Z,99268.16
2023-01-13T15:38:16.950Z,99266.41
2023-01-13T15:40:44.735Z,99243.84
2023-01-13T15:43:32.870Z,99268.91
2023-01-13T15:46:33.340Z,99281.16
2023-01-13T15:49:10.095Z,99276.06
2023-01-13T15:51:38.883Z,99279.16
2023-01-13T15:54:08.286Z,99276.72
2023-01-13T15:56:37.833Z,99285.59
2023-01-13T15:59:06.341Z,99281.56
2023-01-13T16:01:34.258Z,99283.59
2023-01-13T16:04:02.170Z,99280.63
2023-01-13T16:06:33.226Z,99266.28
2023-01-13T16:09:02.938Z,99285.25
2023-01-13T16:11:33.190Z,99291.13
2023-01-13T16:14:01.033Z,99289.47
2023-01-13T16:16:29.932Z,99280.13
2023-01-13T16:19:03.922Z,99291.81
2023-01-13T16:21:31.757Z,99297.84
2023-01-13T16:23:59.518Z,99301.16
2023-01-13T16:26:30.236Z,99304.28
2023-01-13T16:28:59.879Z,99307.38
2023-01-13T16:31:32.021Z,99306.44
2023-01-13T16:34:01.146Z,99302.69
2023-01-13T16:36:30.544Z,99297.16
2023-01-13T16:38:58.392Z,99306.66
2023-01-13T16:41:26.398Z,99302.00
2023-01-13T16:43:54.399Z,99310.72
2023-01-13T16:46:26.055Z,99311.13
2023-01-13T16:48:54.895Z,99295.22
2023-01-13T16:51:24.036Z,99312.47
2023-01-13T16:53:52.302Z,99315.72
2023-01-13T16:56:26.167Z,99311.50
2023-01-13T16:58:55.633Z,99313.25
2023-01-13T17:01:27.443Z,99324.25
2023-01-13T17:03:56.582Z,99317.00
2023-01-13T17:06:28.333Z,99311.88
2023-01-13T17:09:00.844Z,99321.38
2023-01-13T17:11:28.610Z,99313.78
2023-01-13T17:13:56.384Z,99322.09
2023-01-13T17:16:26.372Z,99318.81
2023-01-13T17:18:54.848Z,99308.72
2023-01-13T17:21:22.650Z,99324.16
2023-01-13T17:23:50.665Z,99320.19
2023-01-13T17:26:37.193Z,99320.63
2023-01-13T17:29:06.896Z,99305.25
2023-01-13T17:31:36.826Z,99319.81
2023-01-13T17:34:05.673Z,99320.28
2023-01-13T17:36:33.821Z,99331.03
2023-01-13T17:39:01.715Z,99317.28
2023-01-13T17:41:29.616Z,99324.03
2023-01-13T17:43:57.654Z,99308.94
2023-01-13T17:46:25.549Z,99324.66
2023-01-13T17:48:54.700Z,99324.81
2023-01-13T17:51:25.219Z,99328.19
2023-01-13T17:53:54.255Z,99323.09
2023-01-13T17:56:22.142Z,99317.25
2023-01-13T17:58:50.072Z,99310.50
2023-01-13T18:01:19.718Z,99319.03
2023-01-13T18:03:47.643Z,99317.53
2023-01-13T18:06:19.275Z,99323.06
2023-01-13T18:08:48.321Z,99322.16
2023-01-13T18:11:18.756Z,99328.75
2023-01-13T18:13:46.978Z,99338.09
2023-01-13T18:16:17.648Z,99343.97
2023-01-13T18:18:48.191Z,99337.34
2023-01-13T18:21:37.548Z,99341.31
2023-01-13T18:24:24.345Z,99335.81
2023-01-13T18:27:09.432Z,99342.03
2023-01-13T18:29:37.295Z,99342.31
2023-01-13T18:32:07.676Z,99330.88
2023-01-13T18:34:35.754Z,99348.19
2023-01-13T18:37:06.228Z,99343.06
2023-01-13T18:39:34.675Z,99340.50
2023-01-13T18:42:19.975Z,99339.81
2023-01-13T18:44:47.873Z,99344.16
2023-01-13T18:47:15.575Z,99344.47
2023-01-13T18:49:43.406Z,99350.22
2023-01-13T18:52:13.876Z,99347.34
2023-01-13T18:54:41.459Z,99346.13
2023-01-13T18:57:10.434Z,99344.88
2023-01-13T18:59:38.235Z,99341.28
2023-01-13T19:02:09.484Z,99338.88
2023-01-13T19:04:37.378Z,99342.81
2023-01-13T19:07:06.452Z,99338.59
2023-01-13T19:09:35.551Z,99332.47
2023-01-13T19:12:06.226Z,99335.13
2023-01-13T19:14:38.350Z,99325.16
2023-01-13T19:17:09.452Z,99331.81
2023-01-13T19:19:40.929Z,99329.66
2023-01-13T19:22:09.319Z,99335.88
2023-01-13T19:24:41.918Z,99331.44
2023-01-13T19:27:09.831Z,99337.25
2023-01-13T19:29:37.838Z,99336.78
2023-01-13T19:32:15.761Z,99334.69
2023-01-13T19:34:46.775Z,99340.09
2023-01-13T19:37:14.940Z,99338.44
2023-01-13T19:39:44.244Z,99339.97
2023-01-13T19:42:29.555Z,99336.78
2023-01-13T19:45:14.811Z,99337.19
2023-01-13T19:47:43.986Z,99343.97
2023-01-13T19:50:12.684Z,99326.38
2023-01-13T19:52:41.240Z,99344.81
2023-01-13T19:55:11.825Z,99348.13
2023-01-13T19:57:40.071Z,99327.28
2023-01-13T20:00:10.802Z,99348.28
2023-01-13T20:02:38.909Z,99320.97
2023-01-13T20:05:08.134Z,99351.88
2023-01-13T20:07:36.217Z,99354.44
2023-01-13T20:10:04.835Z,99349.06
2023-01-13T20:12:34.105Z,99352.22
2023-01-13T20:15:01.971Z,99350.06
2023-01-13T20:17:30.779Z,99334.34
2023-01-13T20:19:58.987Z,99345.88
2023-01-13T20:22:26.966Z,99349.22
2023-01-13T20:24:55.942Z,99359.56
2023-01-13T20:27:24.823Z,99346.94
2023-01-13T20:29:54.206Z,99360.22
2023-01-13T20:32:22.168Z,99365.84
2023-01-13T20:34:49.993Z,99358.16
2023-01-13T20:37:17.813Z,99356.00
2023-01-13T20:39:45.994Z,99361.88
2023-01-13T20:42:40.009Z,99360.84
2023-01-13T20:45:10.506Z,99358.97
2023-01-13T20:47:38.297Z,99360.03
2023-01-13T20:50:08.130Z,99343.09
2023-01-13T20:52:36.919Z,99351.34
2023-01-13T20:55:05.790Z,99349.84
2023-01-13T20:57:33.641Z,99340.09
2023-01-13T21:00:02.284Z,99353.31
2023-01-13T21:02:31.730Z,99356.31
2023-01-13T21:04:59.709Z,99352.69
2023-01-13T21:07:28.271Z,99354.19
2023-01-13T21:09:57.373Z,99355.41
2023-01-13T21:12:42.533Z,99358.44
2023-01-13T21:15:19.963Z,99364.41
2023-01-13T21:18:08.943Z,99371.53
2023-01-13T21:20:39.240Z,99361.56
2023-01-13T21:23:07.724Z,99365.44
2023-01-13T21:25:37.298Z,99361.00
2023-01-13T21:28:07.732Z,99372.03
2023-01-13T21:30:36.622Z,99359.13
2023-01-13T21:33:06.479Z,99361.00
2023-01-13T21:35:38.071Z,99355.25
2023-01-13T21:38:05.830Z,99352.69
2023-01-13T21:40:33.816Z,99358.38
2023-01-13T21:43:19.242Z,99352.41
2023-01-13T21:46:05.635Z,99333.63
2023-01-13T21:48:34.922Z,99347.16
2023-01-13T21:51:02.706Z,99350.19
2023-01-13T21:53:30.600Z,99345.47
2023-01-13T21:55:58.543Z,99337.16
2023-01-13T21:58:26.284Z,99338.81
2023-01-13T22:00:54.316Z,99343.66
2023-01-13T22:03:22.288Z,99323.78
2023-01-13T22:05:56.817Z,99339.72
2023-01-13T22:08:35.692Z,99335.00
2023-01-13T22:11:03.675Z,99335.28
2023-01-13T22:13:48.928Z,99328.00
2023-01-13T22:16:16.987Z,99333.03
2023-01-13T22:18:44.861Z,99335.00
2023-01-13T22:21:13.970Z,99336.72
2023-01-13T22:23:41.962Z,99329.25
2023-01-13T22:26:10.023Z,99328.22
2023-01-13T22:28:42.955Z,99317.94
2023-01-13T22:31:12.140Z,99333.19
2023-01-13T22:33:40.835Z,99327.22
2023-01-13T22:36:09.850Z,99317.91
2023-01-13T22:38:39.099Z,99331.34
2023-01-13T22:41:09.118Z,99312.78
2023-01-13T22:43:38.014Z,99333.56
2023-01-13T22:46:07.361Z,99331.28
2023-01-13T22:48:35.250Z,99331.81
2023-01-13T22:51:06.270Z,99328.72
2023-01-13T22:53:34.381Z,99309.44
2023-01-13T22:56:03.950Z,99330.25
2023-01-13T22:58:32.082Z,99318.84
2023-01-13T23:01:08.959Z,99328.25
2023-01-13T23:03:36.915Z,99327.59
2023-01-13T23:06:05.286Z,99298.56
2023-01-13T23:08:34.221Z,99322.75
2023-01-13T23:11:05.036Z,99312.53
2023-01-13T23:13:33.289Z,99311.06
2023-01-13T23:16:03.381Z,99301.72
2023-01-13T23:18:31.405Z,99310.84
2023-01-13T23:21:03.966Z,99322.75
2023-01-13T23:23:32.199Z,99316.22
2023-01-13T23:25:59.925Z,99289.59
2023-01-13T23:28:29.234Z,99315.97
2023-01-13T23:30:57.146Z,99320.47
2023-01-13T23:33:24.899Z,99321.22
2023-01-13T23:36:00.044Z,99321.03
2023-01-13T23:38:28.968Z,99319.97
2023-01-13T23:40:57.143Z,99317.00
2023-01-13T23:43:27.056Z,99317.91
2023-01-13T23:46:02.401Z,99316.47
2023-01-13T23:48:30.892Z,99317.69
2023-01-13T23:50:59.426Z,99323.03
2023-01-13T23:53:33.454Z,99313.63
2023-01-13T23:56:02.241Z,99310.16
2023-01-13T23:58:30.906Z,99308.13
